Time,TemperatureF,DewpointF,PressureIn,WindDirection,WindDirectionDegrees,WindSpeedMPH,WindSpeedGustMPH,Humidity,HourlyPrecipIn,Conditions,Clouds,dailyrainin,SoftwareType,DateUTC
2013-05-17 00:00:00,56.9,54.0,29.94,West,263,0.0,0.0,90,0.00,,---,0.00,VWS V14.01,2013-05-17 04:00:00,
2013-05-17 00:01:00,56.8,53.9,29.94,West,263,0.0,0.0,90,0.00,,---,0.00,VWS V14.01,2013-05-17 04:01:00,
2013-05-17 00:06:00,56.7,53.8,29.94,West,263,0.0,0.0,90,0.00,,---,0.00,VWS V14.01,2013-05-17 04:06:00,
2013-05-17 00:11:00,56.5,53.6,29.94,West,263,0.0,0.0,90,0.00,,---,0.00,VWS V14.01,2013-05-17 04:11:00,
2013-05-17 00:16:00,56.3,53.4,29.94,West,263,0.0,0.0,90,0.00,,---,0.00,VWS V14.01,2013-05-17 04:16:00,
2013-05-17 00:21:00,56.2,53.3,29.94,West,263,0.0,0.0,90,0.00,,---,0.00,VWS V14.01,2013-05-17 04:21:00,
2013-05-17 00:26:00,56.0,53.1,29.95,West,263,0.0,0.0,90,0.00,,---,0.00,VWS V14.01,2013-05-17 04:26:00,
2013-05-17 00:31:00,55.8,52.9,29.95,West,263,0.0,0.0,90,0.00,,---,0.00,VWS V14.01,2013-05-17 04:31:00,
2013-05-17 00:36:00,55.7,52.8,29.95,West,263,0.0,0.0,90,0.00,,---,0.00,VWS V14.01,2013-05-17 04:36:00,
2013-05-17 00:41:00,55.5,52.6,29.95,West,263,0.0,0.0,90,0.00,,---,0.00,VWS V14.01,2013-05-17 04:41:00,
2013-05-17 00:46:00,55.4,52.5,29.96,West,263,0.0,0.0,90,0.00,,---,0.00,VWS V14.01,2013-05-17 04:46:00,
2013-05-17 00:51:00,55.2,52.6,29.96,West,263,0.0,0.0,91,0.00,,---,0.00,VWS V14.01,2013-05-17 04:51:00,
2013-05-17 00:56:00,55.0,52.1,29.96,West,263,0.0,0.0,90,0.00,,---,0.00,VWS V14.01,2013-05-17 04:56:00,
2013-05-17 01:01:00,54.8,52.2,29.96,West,263,0.0,0.0,91,0.00,,---,0.00,VWS V14.01,2013-05-17 05:01:00,
2013-05-17 01:06:00,54.7,52.1,29.97,West,263,0.0,0.0,91,0.00,,---,0.00,VWS V14.01,2013-05-17 05:06:00,
2013-05-17 01:11:00,54.5,51.9,29.97,West,263,0.0,0.0,91,0.00,,---,0.00,VWS V14.01,2013-05-17 05:11:00,
2013-05-17 01:16:00,54.4,51.8,29.96,West,263,0.0,0.0,91,0.00,,---,0.00,VWS V14.01,2013-05-17 05:16:00,
2013-05-17 01:21:00,54.3,51.7,29.96,West,263,0.0,0.0,91,0.00,,---,0.00,VWS V14.01,2013-05-17 05:21:00,
2013-05-17 01:26:00,54.1,51.5,29.97,West,263,0.0,0.0,91,0.00,,---,0.00,VWS V14.01,2013-05-17 05:26:00,
2013-05-17 01:31:00,54.0,51.4,29.96,West,263,0.0,0.0,91,0.00,,---,0.00,VWS V14.01,2013-05-17 05:31:00,
2013-05-17 01:36:00,53.9,51.3,29.97,West,263,0.0,0.0,91,0.00,,---,0.00,VWS V14.01,2013-05-17 05:36:00,
2013-05-17 01:41:00,53.8,51.2,29.97,West,263,0.0,0.0,91,0.00,,---,0.00,VWS V14.01,2013-05-17 05:41:00,
2013-05-17 01:46:00,53.7,51.1,29.97,West,263,0.0,0.0,91,0.00,,---,0.00,VWS V14.01,2013-05-17 05:46:00,
2013-05-17 01:51:00,53.5,50.9,29.97,West,263,0.0,0.0,91,0.00,,---,0.00,VWS V14.01,2013-05-17 05:51:00,
2013-05-17 01:56:00,53.5,50.9,29.97,West,263,0.0,0.0,91,0.00,,---,0.00,VWS V14.01,2013-05-17 05:56:00,
2013-05-17 02:01:00,53.4,50.8,29.97,West,263,0.0,0.0,91,0.00,,---,0.00,VWS V14.01,2013-05-17 06:01:00,
2013-05-17 02:06:00,53.5,51.2,29.98,West,263,0.0,0.0,92,0.00,,---,0.00,VWS V14.01,2013-05-17 06:06:00,
2013-05-17 02:11:00,53.5,51.2,29.98,West,263,0.0,0.0,92,0.00,,---,0.00,VWS V14.01,2013-05-17 06:11:00,
2013-05-17 02:16:00,53.5,51.2,29.98,West,263,0.0,0.0,92,0.00,,---,0.00,VWS V14.01,2013-05-17 06:16:00,
2013-05-17 02:21:00,53.6,51.3,29.98,West,263,0.0,0.0,92,0.00,,---,0.00,VWS V14.01,2013-05-17 06:21:00,
2013-05-17 02:26:00,53.6,51.3,29.97,West,263,0.0,0.0,92,0.00,,---,0.00,VWS V14.01,2013-05-17 06:26:00,
2013-05-17 02:31:00,53.6,51.3,29.98,West,263,0.0,0.0,92,0.00,,---,0.00,VWS V14.01,2013-05-17 06:31:00,
2013-05-17 02:36:00,53.7,51.4,29.98,West,263,0.0,0.0,92,0.00,,---,0.00,VWS V14.01,2013-05-17 06:36:00,
2013-05-17 02:41:00,53.7,51.4,29.98,West,263,0.0,0.0,92,0.00,,---,0.00,VWS V14.01,2013-05-17 06:41:00,
2013-05-17 02:46:00,53.8,51.5,29.98,West,263,0.0,0.0,92,0.00,,---,0.00,VWS V14.01,2013-05-17 06:46:00,
2013-05-17 02:51:00,53.9,51.6,29.98,West,263,0.0,0.0,92,0.00,,---,0.00,VWS V14.01,2013-05-17 06:51:00,
2013-05-17 02:56:00,54.0,52.0,29.97,West,263,0.0,0.0,93,0.00,,---,0.00,VWS V14.01,2013-05-17 06:56:00,
2013-05-17 03:01:00,54.1,52.1,29.98,West,263,0.0,0.0,93,0.00,,---,0.00,VWS V14.01,2013-05-17 07:01:00,
2013-05-17 03:06:00,54.3,52.3,29.98,West,263,0.0,0.0,93,0.00,,---,0.00,VWS V14.01,2013-05-17 07:06:00,
2013-05-17 03:11:00,54.5,52.5,29.98,West,263,0.0,0.0,93,0.00,,---,0.00,VWS V14.01,2013-05-17 07:11:00,
2013-05-17 03:16:00,54.6,52.6,29.98,West,263,0.0,0.0,93,0.00,,---,0.00,VWS V14.01,2013-05-17 07:16:00,
2013-05-17 03:21:00,54.8,52.8,29.98,West,263,0.0,0.0,93,0.00,,---,0.00,VWS V14.01,2013-05-17 07:21:00,
2013-05-17 03:26:00,55.0,53.0,29.98,West,263,0.0,0.0,93,0.00,,---,0.00,VWS V14.01,2013-05-17 07:26:00,
2013-05-17 03:31:00,55.1,53.1,29.99,West,263,0.0,0.0,93,0.00,,---,0.00,VWS V14.01,2013-05-17 07:31:00,
2013-05-17 03:36:00,55.3,53.6,29.99,West,263,0.0,0.0,94,0.00,,---,0.00,VWS V14.01,2013-05-17 07:36:00,
2013-05-17 03:41:00,55.4,53.7,29.99,West,263,0.0,0.0,94,0.00,,---,0.00,VWS V14.01,2013-05-17 07:41:00,
2013-05-17 03:46:00,55.7,54.0,29.98,West,263,0.0,0.0,94,0.00,,---,0.00,VWS V14.01,2013-05-17 07:46:00,
2013-05-17 03:51:00,55.8,54.1,29.98,West,263,0.0,0.0,94,0.00,,---,0.00,VWS V14.01,2013-05-17 07:51:00,
2013-05-17 04:12:00,56.3,54.6,29.99,West,263,0.0,0.0,94,0.00,,---,0.00,VWS V14.01,2013-05-17 08:12:00,
2013-05-17 04:17:00,56.4,54.7,29.99,West,263,0.0,0.0,94,0.00,,---,0.00,VWS V14.01,2013-05-17 08:17:00,
2013-05-17 04:22:00,56.5,54.8,29.99,West,263,0.0,0.0,94,0.00,,---,0.00,VWS V14.01,2013-05-17 08:22:00,
2013-05-17 04:27:00,56.6,54.9,29.99,West,263,0.0,0.0,94,0.00,,---,0.00,VWS V14.01,2013-05-17 08:27:00,
2013-05-17 04:32:00,56.6,54.9,29.99,West,263,0.0,0.0,94,0.00,,---,0.00,VWS V14.01,2013-05-17 08:32:00,
2013-05-17 04:37:00,56.7,55.0,30.00,West,263,0.0,0.0,94,0.00,,---,0.00,VWS V14.01,2013-05-17 08:37:00,
2013-05-17 04:42:00,56.7,55.0,30.00,West,263,0.0,0.0,94,0.00,,---,0.00,VWS V14.01,2013-05-17 08:42:00,
2013-05-17 04:47:00,56.7,55.0,30.00,West,263,0.0,0.0,94,0.00,,---,0.00,VWS V14.01,2013-05-17 08:47:00,
2013-05-17 04:52:00,56.8,55.1,30.00,West,263,0.0,0.0,94,0.00,,---,0.00,VWS V14.01,2013-05-17 08:52:00,
2013-05-17 04:57:00,56.8,55.4,30.00,West,263,0.0,0.0,95,0.00,,---,0.00,VWS V14.01,2013-05-17 08:57:00,
2013-05-17 05:02:00,56.9,55.2,30.00,West,263,0.0,0.0,94,0.00,,---,0.00,VWS V14.01,2013-05-17 09:02:00,
2013-05-17 05:07:00,56.9,55.2,30.01,West,263,0.0,0.0,94,0.00,,---,0.00,VWS V14.01,2013-05-17 09:07:00,
2013-05-17 05:12:00,56.9,55.2,30.01,West,263,0.0,0.0,94,0.00,,---,0.00,VWS V14.01,2013-05-17 09:12:00,
2013-05-17 05:17:00,57.0,55.3,30.01,West,263,0.0,0.0,94,0.00,,---,0.00,VWS V14.01,2013-05-17 09:17:00,
2013-05-17 05:22:00,57.0,55.6,30.01,West,263,0.0,0.0,95,0.00,,---,0.00,VWS V14.01,2013-05-17 09:22:00,
2013-05-17 05:27:00,57.1,55.4,30.01,West,263,0.0,0.0,94,0.00,,---,0.00,VWS V14.01,2013-05-17 09:27:00,
2013-05-17 05:32:00,57.1,55.7,30.01,West,263,0.0,0.0,95,0.00,,---,0.00,VWS V14.01,2013-05-17 09:32:00,
2013-05-17 05:37:00,57.1,55.7,30.01,West,263,0.0,0.0,95,0.00,,---,0.00,VWS V14.01,2013-05-17 09:37:00,
2013-05-17 05:42:00,57.1,55.4,30.02,West,263,0.0,0.0,94,0.00,,---,0.00,VWS V14.01,2013-05-17 09:42:00,
2013-05-17 05:47:00,57.2,55.5,30.02,West,263,0.0,0.0,94,0.00,,---,0.00,VWS V14.01,2013-05-17 09:47:00,
2013-05-17 05:52:00,57.2,55.5,30.02,West,263,0.0,0.0,94,0.00,,---,0.00,VWS V14.01,2013-05-17 09:52:00,
2013-05-17 05:57:00,57.3,55.9,30.02,West,263,0.0,0.0,95,0.00,,---,0.00,VWS V14.01,2013-05-17 09:57:00,
2013-05-17 06:02:00,57.3,55.9,30.03,West,263,0.0,0.0,95,0.00,,---,0.00,VWS V14.01,2013-05-17 10:02:00,
2013-05-17 06:07:00,57.4,56.0,30.03,West,263,0.0,0.0,95,0.00,,---,0.00,VWS V14.01,2013-05-17 10:07:00,
2013-05-17 06:12:00,57.5,56.1,30.03,West,263,0.0,0.0,95,0.00,,---,0.00,VWS V14.01,2013-05-17 10:12:00,
2013-05-17 06:17:00,57.6,56.2,30.03,West,263,0.0,0.0,95,0.00,,---,0.00,VWS V14.01,2013-05-17 10:17:00,
2013-05-17 06:22:00,57.7,56.3,30.04,West,263,0.0,0.0,95,0.00,,---,0.00,VWS V14.01,2013-05-17 10:22:00,
2013-05-17 06:27:00,57.7,56.3,30.04,West,263,0.0,0.0,95,0.00,,---,0.00,VWS V14.01,2013-05-17 10:27:00,
2013-05-17 06:32:00,57.8,56.4,30.04,West,263,0.0,0.0,95,0.00,,---,0.00,VWS V14.01,2013-05-17 10:32:00,
2013-05-17 06:37:00,57.9,56.5,30.04,West,263,0.0,0.0,95,0.00,,---,0.00,VWS V14.01,2013-05-17 10:37:00,
2013-05-17 06:42:00,58.0,56.6,30.04,West,263,0.0,0.0,95,0.00,,---,0.00,VWS V14.01,2013-05-17 10:42:00,
2013-05-17 06:47:00,58.1,56.7,30.04,West,263,0.0,0.0,95,0.00,,---,0.00,VWS V14.01,2013-05-17 10:47:00,
2013-05-17 06:52:00,58.2,56.8,30.05,West,263,0.0,0.0,95,0.00,,---,0.00,VWS V14.01,2013-05-17 10:52:00,
2013-05-17 06:57:00,58.4,57.0,30.04,West,263,0.0,0.0,95,0.00,,---,0.00,VWS V14.01,2013-05-17 10:57:00,
2013-05-17 07:02:00,58.5,57.1,30.05,West,263,0.0,0.0,95,0.00,,---,0.00,VWS V14.01,2013-05-17 11:02:00,
2013-05-17 07:07:00,58.6,57.2,30.05,West,263,0.0,0.0,95,0.00,,---,0.00,VWS V14.01,2013-05-17 11:07:00,
2013-05-17 07:12:00,58.7,57.3,30.05,West,263,0.0,0.0,95,0.00,,---,0.00,VWS V14.01,2013-05-17 11:12:00,
2013-05-17 07:17:00,58.8,57.4,30.05,West,263,0.0,0.0,95,0.00,,---,0.00,VWS V14.01,2013-05-17 11:17:00,
2013-05-17 07:22:00,59.0,57.6,30.05,West,263,0.0,0.0,95,0.00,,---,0.00,VWS V14.01,2013-05-17 11:22:00,
2013-05-17 07:27:00,59.1,58.0,30.05,West,263,0.0,0.0,96,0.00,,---,0.00,VWS V14.01,2013-05-17 11:27:00,
2013-05-17 07:31:00,59.3,58.2,30.05,West,263,0.0,0.0,96,0.00,,---,0.00,VWS V14.01,2013-05-17 11:31:00,
2013-05-17 07:36:00,59.6,58.5,30.05,West,263,0.0,0.0,96,0.00,,---,0.00,VWS V14.01,2013-05-17 11:36:00,
2013-05-17 07:42:00,59.9,58.8,30.05,West,263,0.0,0.0,96,0.00,,---,0.00,VWS V14.01,2013-05-17 11:42:00,
2013-05-17 07:46:00,60.2,59.1,30.06,West,263,0.0,0.0,96,0.00,,---,0.00,VWS V14.01,2013-05-17 11:46:00,
2013-05-17 07:51:00,60.5,59.4,30.06,SW,221,0.0,0.0,96,0.00,,---,0.00,VWS V14.01,2013-05-17 11:51:00,
2013-05-17 07:56:00,60.8,59.7,30.06,SW,221,0.0,0.0,96,0.00,,---,0.00,VWS V14.01,2013-05-17 11:56:00,
2013-05-17 08:01:00,61.1,60.0,30.07,SW,221,0.0,0.0,96,0.00,,---,0.00,VWS V14.01,2013-05-17 12:01:00,
2013-05-17 08:06:00,61.4,60.2,30.06,SW,220,0.0,2.0,96,0.00,,---,0.00,VWS V14.01,2013-05-17 12:06:00,
2013-05-17 08:11:00,61.6,60.5,30.06,SW,220,0.0,1.0,96,0.00,,---,0.00,VWS V14.01,2013-05-17 12:11:00,
2013-05-17 08:16:00,61.9,60.8,30.06,SW,220,0.0,1.0,96,0.00,,---,0.00,VWS V14.01,2013-05-17 12:16:00,
2013-05-17 08:21:00,62.2,61.0,30.06,SW,220,0.0,0.0,96,0.00,,---,0.00,VWS V14.01,2013-05-17 12:21:00,
2013-05-17 08:26:00,62.4,61.2,30.06,SW,220,0.0,1.0,96,0.00,,---,0.00,VWS V14.01,2013-05-17 12:26:00,
2013-05-17 08:31:00,62.6,61.5,30.06,WSW,238,0.0,0.0,96,0.00,,---,0.00,VWS V14.01,2013-05-17 12:31:00,
2013-05-17 08:36:00,62.8,61.7,30.06,WSW,238,0.0,1.0,96,0.00,,---,0.00,VWS V14.01,2013-05-17 12:36:00,
2013-05-17 08:41:00,63.0,61.8,30.07,WSW,238,0.0,2.0,96,0.00,,---,0.00,VWS V14.01,2013-05-17 12:41:00,
2013-05-17 08:46:00,63.2,62.0,30.07,WSW,252,2.0,2.0,96,0.00,,---,0.00,VWS V14.01,2013-05-17 12:46:00,
2013-05-17 08:51:00,63.4,62.2,30.07,WSW,251,0.0,1.0,96,0.00,,---,0.00,VWS V14.01,2013-05-17 12:51:00,
2013-05-17 08:56:00,63.6,62.4,30.07,SSE,167,0.0,1.0,96,0.00,,---,0.00,VWS V14.01,2013-05-17 12:56:00,
2013-05-17 09:01:00,63.8,62.6,30.07,WSW,247,0.0,2.0,96,0.00,,---,0.00,VWS V14.01,2013-05-17 13:01:00,
2013-05-17 09:06:00,64.0,62.8,30.06,WSW,247,0.0,0.0,96,0.00,,---,0.00,VWS V14.01,2013-05-17 13:06:00,
2013-05-17 09:11:00,64.3,63.1,30.06,South,178,0.0,1.0,96,0.00,,---,0.00,VWS V14.01,2013-05-17 13:11:00,
2013-05-17 09:16:00,64.4,63.2,30.07,West,263,0.0,1.0,96,0.00,,---,0.00,VWS V14.01,2013-05-17 13:16:00,
2013-05-17 09:21:00,64.5,63.3,30.07,South,182,2.0,5.0,96,0.00,,---,0.00,VWS V14.01,2013-05-17 13:21:00,
2013-05-17 09:26:00,64.9,63.7,30.07,SW,215,0.0,3.0,96,0.00,,---,0.00,VWS V14.01,2013-05-17 13:26:00,
2013-05-17 09:31:00,65.2,63.7,30.07,SSW,202,1.0,4.0,95,0.00,,---,0.00,VWS V14.01,2013-05-17 13:31:00,
2013-05-17 09:36:00,65.4,63.9,30.07,SE,144,1.0,1.0,95,0.00,,---,0.00,VWS V14.01,2013-05-17 13:36:00,
2013-05-17 09:41:00,65.7,63.9,30.07,SSE,147,0.0,3.0,94,0.00,,---,0.00,VWS V14.01,2013-05-17 13:41:00,
2013-05-17 09:46:00,66.1,64.0,30.07,SSE,154,0.0,2.0,93,0.00,,---,0.00,VWS V14.01,2013-05-17 13:46:00,
2013-05-17 09:51:00,66.3,63.9,30.07,South,179,0.0,1.0,92,0.00,,---,0.00,VWS V14.01,2013-05-17 13:51:00,
2013-05-17 09:56:00,66.6,63.9,30.07,South,179,0.0,1.0,91,0.00,,---,0.00,VWS V14.01,2013-05-17 13:56:00,
2013-05-17 10:01:00,66.9,63.6,30.08,South,188,1.0,3.0,89,0.00,,---,0.00,VWS V14.01,2013-05-17 14:01:00,
2013-05-17 10:06:00,67.4,63.7,30.08,South,174,0.0,1.0,88,0.00,,---,0.00,VWS V14.01,2013-05-17 14:06:00,
2013-05-17 10:11:00,67.8,63.8,30.07,South,175,0.0,1.0,87,0.00,,---,0.00,VWS V14.01,2013-05-17 14:11:00,
2013-05-17 10:16:00,68.4,64.1,30.07,SW,225,0.0,1.0,86,0.00,,---,0.00,VWS V14.01,2013-05-17 14:16:00,
2013-05-17 10:21:00,69.0,64.3,30.08,WSW,254,0.0,2.0,85,0.00,,---,0.00,VWS V14.01,2013-05-17 14:21:00,
2013-05-17 10:26:00,69.5,63.8,30.08,South,186,0.0,2.0,82,0.00,,---,0.00,VWS V14.01,2013-05-17 14:26:00,
2013-05-17 10:31:00,69.9,63.8,30.08,West,268,1.0,2.0,81,0.00,,---,0.00,VWS V14.01,2013-05-17 14:31:00,
2013-05-17 10:36:00,70.2,63.8,30.08,NW,326,0.0,1.0,80,0.00,,---,0.00,VWS V14.01,2013-05-17 14:36:00,
2013-05-17 10:41:00,70.4,63.9,30.08,NW,323,1.0,2.0,80,0.00,,---,0.00,VWS V14.01,2013-05-17 14:41:00,
2013-05-17 10:46:00,70.6,63.8,30.08,NW,323,1.0,2.0,79,0.00,,---,0.00,VWS V14.01,2013-05-17 14:46:00,
2013-05-17 10:51:00,70.7,63.9,30.08,East,88,0.0,2.0,79,0.00,,---,0.00,VWS V14.01,2013-05-17 14:51:00,
2013-05-17 10:56:00,71.1,64.3,30.08,ESE,117,0.0,1.0,79,0.00,,---,0.00,VWS V14.01,2013-05-17 14:56:00,
2013-05-17 11:01:00,71.5,64.7,30.08,ESE,116,0.0,1.0,79,0.00,,---,0.00,VWS V14.01,2013-05-17 15:01:00,
2013-05-17 11:06:00,72.0,64.8,30.08,West,267,1.0,3.0,78,0.00,,---,0.00,VWS V14.01,2013-05-17 15:06:00,
2013-05-17 11:11:00,72.6,65.3,30.08,WNW,292,1.0,4.0,78,0.00,,---,0.00,VWS V14.01,2013-05-17 15:11:00,
2013-05-17 11:16:00,72.8,64.0,30.08,West,271,0.0,1.0,74,0.00,,---,0.00,VWS V14.01,2013-05-17 15:16:00,
2013-05-17 11:21:00,72.7,63.5,30.07,West,271,0.0,0.0,73,0.00,,---,0.00,VWS V14.01,2013-05-17 15:21:00,
2013-05-17 11:26:00,72.9,64.5,30.07,West,265,0.0,2.0,75,0.00,,---,0.00,VWS V14.01,2013-05-17 15:26:00,
2013-05-17 11:31:00,73.3,64.5,30.07,SSE,163,0.0,1.0,74,0.00,,---,0.00,VWS V14.01,2013-05-17 15:31:00,
2013-05-17 11:36:00,73.9,65.5,30.07,SSE,154,0.0,2.0,75,0.00,,---,0.00,VWS V14.01,2013-05-17 15:36:00,
2013-05-17 11:41:00,74.3,65.1,30.07,East,92,1.0,3.0,73,0.00,,---,0.00,VWS V14.01,2013-05-17 15:41:00,
2013-05-17 11:46:00,74.9,65.7,30.07,SW,219,1.0,1.0,73,0.00,,---,0.00,VWS V14.01,2013-05-17 15:46:00,
2013-05-17 11:51:00,75.4,65.8,30.07,ENE,76,4.0,4.0,72,0.00,,---,0.00,VWS V14.01,2013-05-17 15:51:00,
2013-05-17 11:56:00,75.8,64.9,30.07,East,97,0.0,3.0,69,0.00,,---,0.00,VWS V14.01,2013-05-17 15:56:00,
2013-05-17 12:01:00,75.9,65.0,30.07,East,101,0.0,1.0,69,0.00,,---,0.00,VWS V14.01,2013-05-17 16:01:00,
2013-05-17 12:06:00,76.4,65.9,30.07,ENE,71,0.0,4.0,70,0.00,,---,0.00,VWS V14.01,2013-05-17 16:06:00,
2013-05-17 12:11:00,76.9,66.4,30.07,WNW,284,3.0,3.0,70,0.00,,---,0.00,VWS V14.01,2013-05-17 16:11:00,
2013-05-17 12:16:00,77.3,66.3,30.07,West,274,3.0,4.0,69,0.00,,---,0.00,VWS V14.01,2013-05-17 16:16:00,
2013-05-17 12:21:00,77.4,64.7,30.07,NNE,30,2.0,3.0,65,0.00,,---,0.00,VWS V14.01,2013-05-17 16:21:00,
2013-05-17 12:26:00,77.6,65.8,30.06,East,80,0.0,3.0,67,0.00,,---,0.00,VWS V14.01,2013-05-17 16:26:00,
2013-05-17 12:31:00,78.0,66.2,30.06,East,99,0.0,2.0,67,0.00,,---,0.00,VWS V14.01,2013-05-17 16:31:00,
2013-05-17 12:36:00,78.5,67.1,30.06,NNE,29,2.0,3.0,68,0.00,,---,0.00,VWS V14.01,2013-05-17 16:36:00,
2013-05-17 12:41:00,78.7,66.4,30.06,NNE,28,0.0,3.0,66,0.00,,---,0.00,VWS V14.01,2013-05-17 16:41:00,
2013-05-17 12:46:00,79.2,67.7,30.06,WNW,287,0.0,3.0,68,0.00,,---,0.00,VWS V14.01,2013-05-17 16:46:00,
2013-05-17 12:51:00,79.8,67.9,30.06,NW,313,0.0,3.0,67,0.00,,---,0.00,VWS V14.01,2013-05-17 16:51:00,
2013-05-17 12:56:00,80.2,66.9,30.06,South,177,1.0,3.0,64,0.00,,---,0.00,VWS V14.01,2013-05-17 16:56:00,
2013-05-17 13:01:00,80.3,66.6,30.06,SSW,192,0.0,3.0,63,0.00,,---,0.00,VWS V14.01,2013-05-17 17:01:00,
2013-05-17 13:06:00,80.5,64.9,30.06,WNW,282,3.0,11.0,59,0.00,,---,0.00,VWS V14.01,2013-05-17 17:06:00,
2013-05-17 13:11:00,80.8,67.5,30.06,West,277,0.0,3.0,64,0.00,,---,0.00,VWS V14.01,2013-05-17 17:11:00,
2013-05-17 13:16:00,81.0,66.3,30.05,WNW,294,1.0,5.0,61,0.00,,---,0.00,VWS V14.01,2013-05-17 17:16:00,
2013-05-17 13:21:00,81.3,67.5,30.05,NW,309,2.0,4.0,63,0.00,,---,0.00,VWS V14.01,2013-05-17 17:21:00,
2013-05-17 13:26:00,81.7,67.4,30.05,WNW,290,0.0,4.0,62,0.00,,---,0.00,VWS V14.01,2013-05-17 17:26:00,
2013-05-17 13:31:00,81.7,66.0,30.05,West,272,0.0,2.0,59,0.00,,---,0.00,VWS V14.01,2013-05-17 17:31:00,
2013-05-17 13:36:00,82.0,65.3,30.05,SW,215,1.0,3.0,57,0.00,,---,0.00,VWS V14.01,2013-05-17 17:36:00,
2013-05-17 13:41:00,82.0,66.8,30.05,West,269,1.0,3.0,60,0.00,,---,0.00,VWS V14.01,2013-05-17 17:41:00,
2013-05-17 13:46:00,82.3,67.5,30.05,WNW,282,2.0,3.0,61,0.00,,---,0.00,VWS V14.01,2013-05-17 17:46:00,
2013-05-17 13:51:00,82.6,66.8,30.05,West,275,1.0,2.0,59,0.00,,---,0.00,VWS V14.01,2013-05-17 17:51:00,
2013-05-17 13:56:00,82.5,65.2,30.05,West,275,2.0,4.0,56,0.00,,---,0.00,VWS V14.01,2013-05-17 17:56:00,
2013-05-17 14:01:00,82.7,65.4,30.05,ESE,111,0.0,3.0,56,0.00,,---,0.00,VWS V14.01,2013-05-17 18:01:00,
2013-05-17 14:06:00,83.1,65.8,30.04,South,182,0.0,6.0,56,0.00,,---,0.00,VWS V14.01,2013-05-17 18:06:00,
2013-05-17 14:11:00,83.1,65.8,30.04,SSE,148,1.0,3.0,56,0.00,,---,0.00,VWS V14.01,2013-05-17 18:11:00,
2013-05-17 14:16:00,83.2,66.4,30.04,SSW,204,0.0,1.0,57,0.00,,---,0.00,VWS V14.01,2013-05-17 18:16:00,
2013-05-17 14:21:00,83.4,67.1,30.04,West,260,0.0,6.0,58,0.00,,---,0.00,VWS V14.01,2013-05-17 18:21:00,
2013-05-17 14:26:00,83.6,68.3,30.04,WNW,300,1.0,3.0,60,0.00,,---,0.00,VWS V14.01,2013-05-17 18:26:00,
2013-05-17 14:31:00,83.4,65.6,30.04,WNW,293,0.0,3.0,55,0.00,,---,0.00,VWS V14.01,2013-05-17 18:31:00,
2013-05-17 14:36:00,83.2,65.9,30.04,NE,43,0.0,3.0,56,0.00,,---,0.00,VWS V14.01,2013-05-17 18:36:00,
2013-05-17 14:41:00,83.0,64.7,30.04,East,90,2.0,2.0,54,0.00,,---,0.00,VWS V14.01,2013-05-17 18:41:00,
2013-05-17 14:46:00,83.2,66.4,30.04,ENE,63,2.0,3.0,57,0.00,,---,0.00,VWS V14.01,2013-05-17 18:46:00,
2013-05-17 14:51:00,83.3,66.0,30.03,West,277,0.0,6.0,56,0.00,,---,0.00,VWS V14.01,2013-05-17 18:51:00,
2013-05-17 14:56:00,83.2,65.4,30.03,North,360,0.0,3.0,55,0.00,,---,0.00,VWS V14.01,2013-05-17 18:56:00,
2013-05-17 15:01:00,83.2,66.4,30.03,NW,313,1.0,1.0,57,0.00,,---,0.00,VWS V14.01,2013-05-17 19:01:00,
2013-05-17 15:06:00,83.7,68.3,30.03,WNW,282,1.0,3.0,60,0.00,,---,0.00,VWS V14.01,2013-05-17 19:06:00,
2013-05-17 15:11:00,84.0,66.6,30.03,WNW,292,3.0,4.0,56,0.00,,---,0.00,VWS V14.01,2013-05-17 19:11:00,
2013-05-17 15:16:00,84.4,65.4,30.03,North,355,0.0,2.0,53,0.00,,---,0.00,VWS V14.01,2013-05-17 19:16:00,
2013-05-17 15:21:00,84.5,66.6,30.03,NNW,328,0.0,1.0,55,0.00,,---,0.00,VWS V14.01,2013-05-17 19:21:00,
2013-05-17 15:26:00,84.8,65.8,30.02,NW,321,0.0,3.0,53,0.00,,---,0.00,VWS V14.01,2013-05-17 19:26:00,
2013-05-17 15:31:00,84.6,63.9,30.03,SW,236,1.0,4.0,50,0.00,,---,0.00,VWS V14.01,2013-05-17 19:31:00,
2013-05-17 15:36:00,84.5,63.8,30.02,NNE,29,1.0,6.0,50,0.00,,---,0.00,VWS V14.01,2013-05-17 19:36:00,
2013-05-17 15:41:00,84.7,65.1,30.03,West,276,0.0,2.0,52,0.00,,---,0.00,VWS V14.01,2013-05-17 19:41:00,
2013-05-17 15:46:00,84.8,63.5,30.02,West,277,0.0,3.0,49,0.00,,---,0.00,VWS V14.01,2013-05-17 19:46:00,
2013-05-17 15:51:00,85.0,64.3,30.02,West,277,0.0,2.0,50,0.00,,---,0.00,VWS V14.01,2013-05-17 19:51:00,
2013-05-17 15:56:00,85.3,65.7,30.02,NW,306,0.0,5.0,52,0.00,,---,0.00,VWS V14.01,2013-05-17 19:56:00,
2013-05-17 16:01:00,85.6,63.1,30.02,WSW,244,0.0,2.0,47,0.00,,---,0.00,VWS V14.01,2013-05-17 20:01:00,
2013-05-17 16:06:00,85.9,62.1,30.02,NW,304,0.0,3.0,45,0.00,,---,0.00,VWS V14.01,2013-05-17 20:06:00,
2013-05-17 16:11:00,85.9,64.0,30.02,SW,224,0.0,1.0,48,0.00,,---,0.00,VWS V14.01,2013-05-17 20:11:00,
2013-05-17 16:16:00,85.9,66.8,30.01,West,271,0.0,3.0,53,0.00,,---,0.00,VWS V14.01,2013-05-17 20:16:00,
2013-05-17 16:21:00,86.0,60.9,30.01,South,182,7.0,11.0,43,0.00,,---,0.00,VWS V14.01,2013-05-17 20:21:00,
2013-05-17 16:26:00,85.8,66.2,30.01,West,277,3.0,4.0,52,0.00,,---,0.00,VWS V14.01,2013-05-17 20:26:00,
2013-05-17 16:31:00,85.8,63.9,30.01,NW,304,3.0,5.0,48,0.00,,---,0.00,VWS V14.01,2013-05-17 20:31:00,
2013-05-17 16:36:00,85.8,62.0,30.01,West,272,1.0,2.0,45,0.00,,---,0.00,VWS V14.01,2013-05-17 20:36:00,
2013-05-17 16:41:00,85.9,62.1,30.01,West,273,0.0,3.0,45,0.00,,---,0.00,VWS V14.01,2013-05-17 20:41:00,
2013-05-17 16:46:00,86.0,62.8,30.01,West,278,3.0,6.0,46,0.00,,---,0.00,VWS V14.01,2013-05-17 20:46:00,
2013-05-17 16:51:00,86.0,62.8,30.01,NW,310,0.0,4.0,46,0.00,,---,0.00,VWS V14.01,2013-05-17 20:51:00,
2013-05-17 16:56:00,85.9,58.8,30.01,SSE,167,3.0,4.0,40,0.00,,---,0.00,VWS V14.01,2013-05-17 20:56:00,
2013-05-17 17:01:00,85.6,59.9,30.01,SSE,150,0.0,0.0,42,0.00,,---,0.00,VWS V14.01,2013-05-17 21:01:00,
2013-05-17 17:06:00,85.6,61.8,30.01,SSE,150,0.0,0.0,45,0.00,,---,0.00,VWS V14.01,2013-05-17 21:06:00,
2013-05-17 17:11:00,85.5,63.0,30.01,SSW,212,0.0,1.0,47,0.00,,---,0.00,VWS V14.01,2013-05-17 21:11:00,
2013-05-17 17:16:00,85.4,62.9,30.01,WNW,287,1.0,3.0,47,0.00,,---,0.00,VWS V14.01,2013-05-17 21:16:00,
2013-05-17 17:21:00,84.8,59.8,30.01,West,279,0.0,2.0,43,0.00,,---,0.00,VWS V14.01,2013-05-17 21:21:00,
2013-05-17 17:26:00,84.3,58.7,30.01,West,279,0.0,1.0,42,0.00,,---,0.00,VWS V14.01,2013-05-17 21:26:00,
2013-05-17 17:31:00,84.0,59.1,30.01,West,279,0.0,0.0,43,0.00,,---,0.00,VWS V14.01,2013-05-17 21:31:00,
2013-05-17 17:36:00,83.8,62.0,30.01,NNE,28,0.0,1.0,48,0.00,,---,0.00,VWS V14.01,2013-05-17 21:36:00,
2013-05-17 17:41:00,83.5,61.8,30.01,NNE,28,0.0,0.0,48,0.00,,---,0.00,VWS V14.01,2013-05-17 21:41:00,
2013-05-17 17:46:00,83.1,60.8,30.01,NNE,28,0.0,0.0,47,0.00,,---,0.00,VWS V14.01,2013-05-17 21:46:00,
2013-05-17 17:51:00,82.7,61.6,30.01,NW,308,0.0,0.0,49,0.00,,---,0.00,VWS V14.01,2013-05-17 21:51:00,
2013-05-17 17:56:00,82.4,59.0,30.01,NW,308,0.0,1.0,45,0.00,,---,0.00,VWS V14.01,2013-05-17 21:56:00,
2013-05-17 18:01:00,82.4,58.3,30.01,NW,308,0.0,0.0,44,0.00,,---,0.00,VWS V14.01,2013-05-17 22:01:00,
2013-05-17 18:06:00,82.6,61.5,30.01,NW,308,0.0,1.0,49,0.00,,---,0.00,VWS V14.01,2013-05-17 22:06:00,
2013-05-17 18:11:00,82.7,61.0,30.01,NW,308,0.0,1.0,48,0.00,,---,0.00,VWS V14.01,2013-05-17 22:11:00,
2013-05-17 18:16:00,82.4,60.2,30.01,West,279,0.0,0.0,47,0.00,,---,0.00,VWS V14.01,2013-05-17 22:16:00,
2013-05-17 18:21:00,82.1,61.6,30.01,West,279,0.0,0.0,50,0.00,,---,0.00,VWS V14.01,2013-05-17 22:21:00,
2013-05-17 18:26:00,81.8,57.8,30.01,West,279,0.0,0.0,44,0.00,,---,0.00,VWS V14.01,2013-05-17 22:26:00,
2013-05-17 18:31:00,81.5,58.8,30.01,West,279,0.0,0.0,46,0.00,,---,0.00,VWS V14.01,2013-05-17 22:31:00,
2013-05-17 18:36:00,81.2,59.1,30.01,West,279,0.0,0.0,47,0.00,,---,0.00,VWS V14.01,2013-05-17 22:36:00,
2013-05-17 18:41:00,81.0,60.6,30.01,West,279,0.0,0.0,50,0.00,,---,0.00,VWS V14.01,2013-05-17 22:41:00,
2013-05-17 18:46:00,80.6,61.9,30.01,West,279,1.0,2.0,53,0.00,,---,0.00,VWS V14.01,2013-05-17 22:46:00,
2013-05-17 18:51:00,80.1,58.7,30.01,West,279,0.0,0.0,48,0.00,,---,0.00,VWS V14.01,2013-05-17 22:51:00,
2013-05-17 18:56:00,79.7,61.6,30.01,West,279,0.0,0.0,54,0.00,,---,0.00,VWS V14.01,2013-05-17 22:56:00,
2013-05-17 19:01:00,79.2,61.7,30.01,West,279,0.0,0.0,55,0.00,,---,0.00,VWS V14.01,2013-05-17 23:01:00,
2013-05-17 19:06:00,78.7,61.2,30.01,West,279,0.0,0.0,55,0.00,,---,0.00,VWS V14.01,2013-05-17 23:06:00,
2013-05-17 19:11:00,78.1,61.1,30.01,West,279,0.0,0.0,56,0.00,,---,0.00,VWS V14.01,2013-05-17 23:11:00,
2013-05-17 19:16:00,77.4,60.5,30.01,West,279,0.0,0.0,56,0.00,,---,0.00,VWS V14.01,2013-05-17 23:16:00,
2013-05-17 19:21:00,76.9,61.0,30.02,West,279,0.0,0.0,58,0.00,,---,0.00,VWS V14.01,2013-05-17 23:21:00,
2013-05-17 19:26:00,76.3,60.9,30.01,West,279,0.0,0.0,59,0.00,,---,0.00,VWS V14.01,2013-05-17 23:26:00,
2013-05-17 19:31:00,75.7,60.4,30.01,West,279,0.0,0.0,59,0.00,,---,0.00,VWS V14.01,2013-05-17 23:31:00,
2013-05-17 19:36:00,75.2,61.3,30.01,West,279,0.0,0.0,62,0.00,,---,0.00,VWS V14.01,2013-05-17 23:36:00,
2013-05-17 19:41:00,74.6,61.2,30.01,West,279,0.0,0.0,63,0.00,,---,0.00,VWS V14.01,2013-05-17 23:41:00,
2013-05-17 19:46:00,73.9,61.0,30.02,West,279,0.0,0.0,64,0.00,,---,0.00,VWS V14.01,2013-05-17 23:46:00,
2013-05-17 19:51:00,73.4,60.9,30.02,West,279,0.0,0.0,65,0.00,,---,0.00,VWS V14.01,2013-05-17 23:51:00,
2013-05-17 19:56:00,72.8,60.8,30.02,West,279,0.0,0.0,66,0.00,,---,0.00,VWS V14.01,2013-05-17 23:56:00,
2013-05-17 20:01:00,72.3,60.7,30.02,West,279,0.0,0.0,67,0.00,,---,0.00,VWS V14.01,2013-05-18 00:01:00,
2013-05-17 20:06:00,71.8,60.7,30.02,West,279,0.0,0.0,68,0.00,,---,0.00,VWS V14.01,2013-05-18 00:06:00,
2013-05-17 20:11:00,71.3,60.6,30.02,West,279,0.0,0.0,69,0.00,,---,0.00,VWS V14.01,2013-05-18 00:11:00,
2013-05-17 20:16:00,70.7,60.0,30.03,West,279,0.0,0.0,69,0.00,,---,0.00,VWS V14.01,2013-05-18 00:16:00,
2013-05-17 20:21:00,70.2,60.4,30.03,West,279,0.0,0.0,71,0.00,,---,0.00,VWS V14.01,2013-05-18 00:21:00,
2013-05-17 20:26:00,69.7,59.9,30.03,West,279,0.0,0.0,71,0.00,,---,0.00,VWS V14.01,2013-05-18 00:26:00,
2013-05-17 20:31:00,69.2,59.4,30.03,West,279,0.0,0.0,71,0.00,,---,0.00,VWS V14.01,2013-05-18 00:31:00,
2013-05-17 20:36:00,68.7,59.7,30.03,West,279,0.0,0.0,73,0.00,,---,0.00,VWS V14.01,2013-05-18 00:36:00,
2013-05-17 20:41:00,68.2,59.2,30.03,West,279,0.0,0.0,73,0.00,,---,0.00,VWS V14.01,2013-05-18 00:41:00,
2013-05-17 20:46:00,67.7,59.1,30.03,West,279,0.0,0.0,74,0.00,,---,0.00,VWS V14.01,2013-05-18 00:46:00,
2013-05-17 20:51:00,67.2,59.0,30.03,West,279,0.0,0.0,75,0.00,,---,0.00,VWS V14.01,2013-05-18 00:51:00,
2013-05-17 20:56:00,66.6,58.4,30.04,West,279,0.0,0.0,75,0.00,,---,0.00,VWS V14.01,2013-05-18 00:56:00,
2013-05-17 21:01:00,66.1,58.3,30.04,West,279,0.0,0.0,76,0.00,,---,0.00,VWS V14.01,2013-05-18 01:01:00,
2013-05-17 21:06:00,65.7,58.3,30.04,West,279,0.0,0.0,77,0.00,,---,0.00,VWS V14.01,2013-05-18 01:06:00,
2013-05-17 21:11:00,65.2,57.8,30.04,West,279,0.0,0.0,77,0.00,,---,0.00,VWS V14.01,2013-05-18 01:11:00,
2013-05-17 21:16:00,64.8,57.8,30.05,West,279,0.0,0.0,78,0.00,,---,0.00,VWS V14.01,2013-05-18 01:16:00,
2013-05-17 21:21:00,64.4,57.4,30.05,West,279,0.0,0.0,78,0.00,,---,0.00,VWS V14.01,2013-05-18 01:21:00,
2013-05-17 21:26:00,64.0,57.4,30.05,West,279,0.0,0.0,79,0.00,,---,0.00,VWS V14.01,2013-05-18 01:26:00,
2013-05-17 21:31:00,63.6,57.3,30.05,West,279,0.0,0.0,80,0.00,,---,0.00,VWS V14.01,2013-05-18 01:31:00,
2013-05-17 21:36:00,63.2,56.9,30.05,West,279,0.0,0.0,80,0.00,,---,0.00,VWS V14.01,2013-05-18 01:36:00,
2013-05-17 21:41:00,62.9,57.0,30.05,West,279,0.0,0.0,81,0.00,,---,0.00,VWS V14.01,2013-05-18 01:41:00,
2013-05-17 21:46:00,62.6,56.7,30.06,West,279,0.0,0.0,81,0.00,,---,0.00,VWS V14.01,2013-05-18 01:46:00,
2013-05-17 21:51:00,62.2,56.6,30.06,West,279,0.0,0.0,82,0.00,,---,0.00,VWS V14.01,2013-05-18 01:51:00,
2013-05-17 21:56:00,61.9,56.3,30.06,West,279,0.0,0.0,82,0.00,,---,0.00,VWS V14.01,2013-05-18 01:56:00,
2013-05-17 22:01:00,61.5,56.3,30.06,West,279,0.0,0.0,83,0.00,,---,0.00,VWS V14.01,2013-05-18 02:01:00,
2013-05-17 22:06:00,61.3,56.1,30.06,West,279,0.0,0.0,83,0.00,,---,0.00,VWS V14.01,2013-05-18 02:06:00,
2013-05-17 22:11:00,60.9,56.0,30.06,West,279,0.0,0.0,84,0.00,,---,0.00,VWS V14.01,2013-05-18 02:11:00,
2013-05-17 22:16:00,60.7,56.2,30.06,West,279,0.0,0.0,85,0.00,,---,0.00,VWS V14.01,2013-05-18 02:16:00,
2013-05-17 22:21:00,60.4,55.9,30.06,West,279,0.0,0.0,85,0.00,,---,0.00,VWS V14.01,2013-05-18 02:21:00,
2013-05-17 22:26:00,60.2,55.7,30.06,West,279,0.0,0.0,85,0.00,,---,0.00,VWS V14.01,2013-05-18 02:26:00,
2013-05-17 22:31:00,60.0,55.5,30.06,West,279,0.0,0.0,85,0.00,,---,0.00,VWS V14.01,2013-05-18 02:31:00,
2013-05-17 22:36:00,59.7,55.5,30.07,West,279,0.0,0.0,86,0.00,,---,0.00,VWS V14.01,2013-05-18 02:36:00,
2013-05-17 22:41:00,59.4,55.2,30.07,West,279,0.0,0.0,86,0.00,,---,0.00,VWS V14.01,2013-05-18 02:41:00,
2013-05-17 22:46:00,59.2,55.0,30.07,West,279,0.0,0.0,86,0.00,,---,0.00,VWS V14.01,2013-05-18 02:46:00,
2013-05-17 22:51:00,59.0,54.8,30.07,West,279,0.0,0.0,86,0.00,,---,0.00,VWS V14.01,2013-05-18 02:51:00,
2013-05-17 22:56:00,58.7,54.5,30.07,West,279,0.0,0.0,86,0.00,,---,0.00,VWS V14.01,2013-05-18 02:56:00,
2013-05-17 23:01:00,58.5,54.7,30.07,West,279,0.0,0.0,87,0.00,,---,0.00,VWS V14.01,2013-05-18 03:01:00,
2013-05-17 23:06:00,58.3,54.5,30.07,West,279,0.0,0.0,87,0.00,,---,0.00,VWS V14.01,2013-05-18 03:06:00,
2013-05-17 23:11:00,58.1,54.3,30.07,West,279,0.0,0.0,87,0.00,,---,0.00,VWS V14.01,2013-05-18 03:11:00,
2013-05-17 23:16:00,57.9,54.1,30.07,West,279,0.0,0.0,87,0.00,,---,0.00,VWS V14.01,2013-05-18 03:16:00,
2013-05-17 23:21:00,57.7,53.9,30.07,West,279,0.0,0.0,87,0.00,,---,0.00,VWS V14.01,2013-05-18 03:21:00,
2013-05-17 23:26:00,57.5,53.7,30.07,West,279,0.0,0.0,87,0.00,,---,0.00,VWS V14.01,2013-05-18 03:26:00,
2013-05-17 23:31:00,57.3,53.8,30.07,West,279,0.0,0.0,88,0.00,,---,0.00,VWS V14.01,2013-05-18 03:31:00,
2013-05-17 23:36:00,57.1,53.6,30.07,West,279,0.0,0.0,88,0.00,,---,0.00,VWS V14.01,2013-05-18 03:36:00,
2013-05-17 23:41:00,56.9,53.4,30.07,West,279,0.0,0.0,88,0.00,,---,0.00,VWS V14.01,2013-05-18 03:41:00,
2013-05-17 23:46:00,56.8,53.3,30.07,West,279,0.0,0.0,88,0.00,,---,0.00,VWS V14.01,2013-05-18 03:46:00,
2013-05-17 23:51:00,56.6,53.1,30.07,West,279,0.0,0.0,88,0.00,,---,0.00,VWS V14.01,2013-05-18 03:51:00,
2013-05-17 23:56:00,56.4,52.9,30.07,West,279,0.0,0.0,88,0.00,,---,0.00,VWS V14.01,2013-05-18 03:56:00,